Time;durP1;ratioP1;P1;durP2;ratioP2;P2;SDS_P1;SDS_P2;PMS_P1;PMS_P2;Temp;Humidity;BMP_temperature;BMP_pressure;BME280_temperature;BME280_humidity;BME280_pressure;Samples;Min_cycle;Max_cycle;Signal;HPM_P1;HPM_P2
2021/12/18 00:00:59;;;;;;;;;;;;;;;-5.42;73.48;96516.91;6396619;27;19930;-63
2021/12/18 00:04:03;;;;;;;;;;;;;;;-5.40;73.79;96526.31;6397023;27;19930;-62
2021/12/18 00:07:08;;;;;;;;;;;;;;;-5.34;73.14;96523.72;6398153;27;20410;-62
2021/12/18 00:10:10;;;;;;;;;;;;;;;-5.45;73.48;96531.47;6402351;27;19945;-63
2021/12/18 00:13:13;;;;;;;;;;;;;;;-5.59;73.79;96535.84;6401979;27;19930;-61
2021/12/18 00:16:14;;;;;;;;;;;;;;;-5.58;73.46;96524.72;6402079;27;20030;-63
2021/12/18 00:19:15;;;;;;;;;;;;;;;-5.76;73.53;96515.47;6401906;27;19930;-63
2021/12/18 00:22:16;;;;;;;;;;;;;;;-5.76;74.38;96515.47;6401773;27;19945;-62
2021/12/18 00:25:17;;;;;;;;;;;;;;;-5.67;74.86;96517.97;6400389;27;19923;-63
2021/12/18 00:28:18;;;;;;;;;;;;;;;-5.62;74.09;96512.81;6401795;27;19937;-62
2021/12/18 00:31:19;;;;;;;;;;;;;;;-5.69;73.91;96517.13;6401515;27;20013;-64
2021/12/18 00:34:24;;;;;;;;;;;;;;;-5.81;74.01;96517.22;6401494;27;19923;-63
2021/12/18 00:37:28;;;;;;;;;;;;;;;-5.91;74.14;96524.13;6401581;27;19923;-63
2021/12/18 00:40:44;;;;;;;;;;;;;;;-6.03;74.24;96517.34;6401453;27;19923;-63
2021/12/18 00:44:04;;;;;;;;;;;;;;;-6.02;74.70;96519.06;6401316;27;19923;-61
2021/12/18 00:47:05;;;;;;;;;;;;;;;-5.97;75.11;96516.47;6400491;27;19922;-62
2021/12/18 00:50:07;;;;;;;;;;;;;;;-5.66;74.66;96522.25;6400172;27;19929;-63
2021/12/18 00:53:08;;;;;;;;;;;;;;;-5.67;74.26;96510.28;6400197;27;19927;-64
2021/12/18 00:56:09;;;;;;;;;;;;;;;-5.50;74.05;96507.59;6401053;27;20064;-62
2021/12/18 00:59:13;;;;;;;;;;;;;;;-5.39;74.09;96499.81;6401124;27;19923;-62
2021/12/18 01:02:15;;;;;;;;;;;;;;;-5.36;73.82;96499.78;6382031;27;19923;-63
2021/12/18 01:05:16;;;;;;;;;;;;;;;-5.37;74.46;96495.53;6399886;27;20438;-62
2021/12/18 01:08:18;;;;;;;;;;;;;;;-5.35;74.12;96501.47;6400656;27;19930;-62
2021/12/18 01:11:42;;;;;;;;;;;;;;;-5.32;73.91;96504.00;6400587;27;19923;-62
2021/12/18 01:24:56;;;;;;;;;;;;;;;-4.94;73.99;96513.09;6400149;27;19930;-62
2021/12/18 01:27:57;;;;;;;;;;;;;;;-4.89;74.12;96525.00;6399384;27;20388;-62
2021/12/18 01:30:58;;;;;;;;;;;;;;;-4.84;73.95;96519.81;6400151;27;19930;-62
2021/12/18 01:33:59;;;;;;;;;;;;;;;-4.81;73.68;96517.22;6398953;27;19923;-62
2021/12/18 01:37:00;;;;;;;;;;;;;;;-4.78;73.71;96519.78;6399344;27;19923;-62
2021/12/18 01:40:02;;;;;;;;;;;;;;;-4.74;73.84;96522.28;6398939;27;19923;-63
2021/12/18 01:46:33;;;;;;;;;;;;;;;-4.65;73.62;96518.75;6399914;27;19923;-63
2021/12/18 01:52:56;;;;;;;;;;;;;;;-4.55;73.12;96504.97;6399721;27;20291;-63
2021/12/18 01:55:59;;;;;;;;;;;;;;;-4.48;72.81;96512.59;6399651;27;19924;-62
2021/12/18 01:59:00;;;;;;;;;;;;;;;-4.42;72.67;96517.66;6399420;27;19972;-62
2021/12/18 02:02:04;;;;;;;;;;;;;;;-4.38;73.06;96509.91;6399495;27;20064;-63
2021/12/18 02:05:06;;;;;;;;;;;;;;;-4.31;72.71;96513.22;6398652;27;19923;-62
2021/12/18 02:08:09;;;;;;;;;;;;;;;-4.30;72.59;96514.94;6399404;27;19923;-64
2021/12/18 02:11:28;;;;;;;;;;;;;;;-4.25;72.52;96525.16;6399288;27;19923;-63
2021/12/18 02:21:30;;;;;;;;;;;;;;;-4.17;72.91;96533.63;6398688;27;19923;-63
2021/12/18 02:24:34;;;;;;;;;;;;;;;-4.16;72.47;96531.03;6397907;27;19923;-63
2021/12/18 02:27:37;;;;;;;;;;;;;;;-4.15;72.39;96530.16;6398791;27;19923;-62
2021/12/18 02:30:39;;;;;;;;;;;;;;;-4.10;72.88;96533.53;6397431;27;20320;-63
2021/12/18 02:33:41;;;;;;;;;;;;;;;-4.03;72.57;96524.00;6398419;27;20400;-62
2021/12/18 02:36:46;;;;;;;;;;;;;;;-4.01;72.51;96529.97;6398486;27;19923;-62
2021/12/18 02:40:48;;;;;;;;;;;;;;;-3.98;72.59;96534.22;6398727;27;20009;-62
2021/12/18 02:43:16;;;;;;;;;;;;;;;-3.93;72.45;96532.47;6397871;27;19930;-62
2021/12/18 02:46:20;;;;;;;;;;;;;;;-3.89;72.54;96536.69;6398261;27;19923;-63
2021/12/18 02:49:21;;;;;;;;;;;;;;;-3.88;72.22;96536.66;6397324;27;19923;-63
2021/12/18 02:52:26;;;;;;;;;;;;;;;-3.89;72.19;96544.38;6396991;27;19923;-63
2021/12/18 02:55:27;;;;;;;;;;;;;;;-3.88;72.11;96552.09;6397335;27;19929;-63
2021/12/18 02:58:31;;;;;;;;;;;;;;;-3.81;72.24;96558.00;6397171;27;20331;-63
2021/12/18 03:01:34;;;;;;;;;;;;;;;-3.77;72.25;96553.66;6397306;27;19923;-62
2021/12/18 03:04:41;;;;;;;;;;;;;;;-3.73;72.11;96561.31;6397811;27;19923;-63
2021/12/18 03:07:42;;;;;;;;;;;;;;;-3.69;72.19;96555.25;6397207;27;19923;-63
2021/12/18 03:24:23;;;;;;;;;;;;;;;-3.58;71.13;96564.53;6397623;27;19930;-64
2021/12/18 03:27:26;;;;;;;;;;;;;;;-3.56;71.34;96573.94;6397253;27;19923;-63
2021/12/18 03:30:29;;;;;;;;;;;;;;;-3.53;71.38;96583.31;6397431;27;19923;-63
2021/12/18 03:33:31;;;;;;;;;;;;;;;-3.53;71.65;96575.63;6397465;27;19929;-63
2021/12/18 03:36:32;;;;;;;;;;;;;;;-3.51;71.73;96567.00;6396902;27;20380;-62
2021/12/18 03:39:36;;;;;;;;;;;;;;;-3.49;71.64;96574.69;6397457;27;20307;-63
2021/12/18 03:42:40;;;;;;;;;;;;;;;-3.49;71.64;96578.09;6401371;27;20299;-63
2021/12/18 03:45:44;;;;;;;;;;;;;;;-3.47;71.77;96568.66;6405667;27;19945;-62
2021/12/18 03:48:45;;;;;;;;;;;;;;;-3.45;71.70;96561.78;6405099;27;19930;-63
2021/12/18 03:51:48;;;;;;;;;;;;;;;-3.43;71.68;96564.31;6405936;27;20021;-62
2021/12/18 03:54:49;;;;;;;;;;;;;;;-3.42;71.54;96560.88;6405219;27;20452;-62
2021/12/18 03:57:50;;;;;;;;;;;;;;;-3.40;71.53;96569.41;6405216;27;19918;-63
2021/12/18 04:00:51;;;;;;;;;;;;;;;-3.38;71.43;96565.94;6405477;27;19919;-64
2021/12/18 04:03:55;;;;;;;;;;;;;;;-3.37;71.47;96561.63;6405939;27;20397;-63
2021/12/18 04:07:00;;;;;;;;;;;;;;;-3.33;71.61;96572.75;6405375;27;19923;-63
2021/12/18 04:10:01;;;;;;;;;;;;;;;-3.33;71.32;96563.31;6404869;27;20409;-64
2021/12/18 04:13:08;;;;;;;;;;;;;;;-3.30;71.35;96573.53;6405535;27;19923;-62
2021/12/18 04:16:09;;;;;;;;;;;;;;;-3.32;71.43;96567.56;6405638;27;19923;-63
2021/12/18 04:19:10;;;;;;;;;;;;;;;-3.32;71.63;96572.72;6405511;27;20414;-63
2021/12/18 04:22:11;;;;;;;;;;;;;;;-3.30;71.31;96580.41;6404522;27;20339;-63
2021/12/18 04:25:12;;;;;;;;;;;;;;;-3.30;71.44;96581.25;6386360;27;19923;-63
2021/12/18 04:28:14;;;;;;;;;;;;;;;-3.28;70.97;96591.53;6405408;27;20006;-62
2021/12/18 04:31:15;;;;;;;;;;;;;;;-3.26;71.49;96588.03;6405260;27;20385;-62
2021/12/18 04:34:20;;;;;;;;;;;;;;;-3.21;71.28;96586.25;6404381;27;20454;-63
2021/12/18 04:37:27;;;;;;;;;;;;;;;-3.13;71.34;96593.88;6405154;27;19975;-63
2021/12/18 04:40:30;;;;;;;;;;;;;;;-3.08;71.14;96591.25;6405174;27;19922;-63
2021/12/18 04:43:31;;;;;;;;;;;;;;;-3.05;71.40;96589.47;6405131;27;19923;-63
2021/12/18 04:46:37;;;;;;;;;;;;;;;-2.99;71.39;96578.22;6405154;27;19923;-63
2021/12/18 04:49:40;;;;;;;;;;;;;;;-2.93;71.34;96583.25;6404883;27;20291;-62
2021/12/18 04:52:41;;;;;;;;;;;;;;;-2.92;70.70;96579.78;6404941;27;19930;-63
2021/12/18 04:55:45;;;;;;;;;;;;;;;-2.88;71.11;96568.59;6399822;27;19923;-63
2021/12/18 04:58:46;;;;;;;;;;;;;;;-2.84;70.60;96575.38;6400889;27;19923;-62
2021/12/18 05:01:51;;;;;;;;;;;;;;;-2.78;70.56;96585.56;6400764;27;19930;-63
2021/12/18 05:04:52;;;;;;;;;;;;;;;-2.70;70.55;96577.72;6399941;27;20026;-63
2021/12/18 05:07:54;;;;;;;;;;;;;;;-2.63;70.26;96568.13;6400637;27;19930;-63
2021/12/18 05:10:55;;;;;;;;;;;;;;;-2.58;70.51;96566.34;6399871;27;20293;-62
2021/12/18 05:13:56;;;;;;;;;;;;;;;-2.52;69.86;96568.81;6400467;27;19930;-63
2021/12/18 05:17:00;;;;;;;;;;;;;;;-2.46;69.54;96580.72;6400350;27;19923;-63
2021/12/18 05:20:01;;;;;;;;;;;;;;;-2.42;69.57;96578.06;6400411;27;20380;-64
2021/12/18 05:23:02;;;;;;;;;;;;;;;-2.35;69.84;96574.50;6399927;27;20368;-63
2021/12/18 05:26:05;;;;;;;;;;;;;;;-2.30;69.14;96572.69;6400145;27;19923;-63
2021/12/18 05:29:06;;;;;;;;;;;;;;;-2.27;69.64;96557.16;6400207;27;20323;-63
2021/12/18 05:32:10;;;;;;;;;;;;;;;-2.27;69.62;96559.72;6399328;27;19927;-63
2021/12/18 05:35:13;;;;;;;;;;;;;;;-2.22;69.44;96563.97;6381092;27;19923;-64
2021/12/18 05:38:14;;;;;;;;;;;;;;;-2.13;69.67;96576.66;6398781;27;20064;-63
2021/12/18 05:41:18;;;;;;;;;;;;;;;-2.07;69.52;96573.97;6399712;27;19923;-63
2021/12/18 05:44:19;;;;;;;;;;;;;;;-2.02;69.71;96574.72;6398526;27;20018;-62
2021/12/18 05:47:23;;;;;;;;;;;;;;;-1.98;69.44;96558.31;6399493;27;19940;-63
2021/12/18 05:50:28;;;;;;;;;;;;;;;-2.00;69.17;96554.91;6398870;27;19923;-64
2021/12/18 05:53:29;;;;;;;;;;;;;;;-1.97;69.64;96549.69;6399631;27;19923;-62
2021/12/18 05:56:30;;;;;;;;;;;;;;;-1.87;69.28;96540.91;6398613;27;19946;-63
2021/12/18 05:59:34;;;;;;;;;;;;;;;-1.72;69.27;96541.47;6399481;27;19923;-63
2021/12/18 06:02:35;;;;;;;;;;;;;;;-1.56;68.84;96545.38;6398747;27;19922;-63
2021/12/18 06:05:39;;;;;;;;;;;;;;;-1.45;68.44;96553.72;6398661;27;20319;-63
2021/12/18 06:08:42;;;;;;;;;;;;;;;-1.39;68.43;96563.94;6398535;27;19923;-64
2021/12/18 06:11:46;;;;;;;;;;;;;;;-1.35;68.03;96559.53;6399229;27;19919;-64
2021/12/18 06:14:50;;;;;;;;;;;;;;;-1.47;66.99;96560.66;6398887;27;19930;-63
2021/12/18 06:17:53;;;;;;;;;;;;;;;-1.59;67.64;96566.06;6397679;27;19923;-63
2021/12/18 06:20:56;;;;;;;;;;;;;;;-1.51;68.33;96564.19;6398867;27;19919;-63
2021/12/18 06:23:58;;;;;;;;;;;;;;;-1.42;68.33;96574.28;6398388;27;20400;-63
2021/12/18 06:26:59;;;;;;;;;;;;;;;-1.24;67.54;96582.53;6398784;27;19923;-63
2021/12/18 06:30:01;;;;;;;;;;;;;;;-1.07;67.26;96580.41;6397783;27;19923;-63
2021/12/18 06:33:04;;;;;;;;;;;;;;;-1.04;67.37;96582.91;6397432;27;20030;-64
2021/12/18 06:36:05;;;;;;;;;;;;;;;-0.91;67.18;96588.59;6397490;27;19929;-63
2021/12/18 06:39:09;;;;;;;;;;;;;;;-0.78;66.60;96592.59;6397331;27;19956;-63
2021/12/18 06:42:12;;;;;;;;;;;;;;;-0.59;66.31;96587.84;6397207;27;19933;-64
2021/12/18 06:45:18;;;;;;;;;;;;;;;-0.29;66.73;96582.75;6397962;27;19923;-64
2021/12/18 06:48:19;;;;;;;;;;;;;;;-0.10;65.55;96578.78;6378502;27;20319;-64
2021/12/18 06:51:21;;;;;;;;;;;;;;;0.02;64.89;96577.56;6397202;27;20308;-64
2021/12/18 06:54:22;;;;;;;;;;;;;;;-0.05;64.26;96574.31;6379074;27;19935;-64
2021/12/18 06:57:23;;;;;;;;;;;;;;;0.04;64.70;96575.81;6398059;27;19923;-65
2021/12/18 07:00:27;;;;;;;;;;;;;;;0.04;64.93;96572.38;6397495;27;19946;-63
2021/12/18 07:03:30;;;;;;;;;;;;;;;-0.16;64.29;96581.53;6397202;27;19923;-63
2021/12/18 07:06:34;;;;;;;;;;;;;;;-0.53;64.68;96579.91;6397648;27;19927;-63
2021/12/18 07:09:37;;;;;;;;;;;;;;;-0.54;65.09;96570.47;6397794;27;19930;-64
2021/12/18 07:12:40;;;;;;;;;;;;;;;-0.38;64.65;96565.72;6396618;27;19950;-63
2021/12/18 07:15:42;;;;;;;;;;;;;;;-0.13;64.19;96559.91;6396645;27;19923;-63
2021/12/18 07:18:45;;;;;;;;;;;;;;;0.19;63.72;96551.22;6395485;27;19946;-63
2021/12/18 07:21:46;;;;;;;;;;;;;;;0.31;63.12;96550.88;6397312;27;19963;-63
2021/12/18 07:24:47;;;;;;;;;;;;;;;0.53;62.45;96552.81;6397401;27;19945;-63
2021/12/18 07:27:50;;;;;;;;;;;;;;;0.39;61.14;96546.31;6397008;27;19927;-62
2021/12/18 07:30:51;;;;;;;;;;;;;;;0.31;61.93;96537.94;6396151;27;19923;-63
2021/12/18 07:33:52;;;;;;;;;;;;;;;0.46;62.24;96543.56;6396152;27;20075;-63
2021/12/18 07:36:53;;;;;;;;;;;;;;;0.69;62.11;96535.94;6397147;27;19957;-64
2021/12/18 07:39:54;;;;;;;;;;;;;;;0.88;61.61;96526.69;6396409;27;20002;-64
2021/12/18 07:42:55;;;;;;;;;;;;;;;0.99;61.63;96522.88;6396322;27;20376;-63
2021/12/18 07:45:57;;;;;;;;;;;;;;;1.11;61.75;96517.31;6395833;27;20446;-63
2021/12/18 07:48:58;;;;;;;;;;;;;;;1.04;61.64;96515.81;6397036;27;20018;-64
2021/12/18 07:52:03;;;;;;;;;;;;;;;0.95;61.50;96518.72;6396943;27;19984;-64
2021/12/18 07:55:07;;;;;;;;;;;;;;;0.96;61.71;96512.63;6397112;27;19923;-63
2021/12/18 07:58:10;;;;;;;;;;;;;;;0.78;61.41;96509.72;6396397;27;19927;-63
2021/12/18 08:01:11;;;;;;;;;;;;;;;0.64;61.39;96511.91;6397361;27;19930;-63
2021/12/18 08:04:12;;;;;;;;;;;;;;;0.47;62.01;96506.41;6396507;27;20017;-63
2021/12/18 08:07:13;;;;;;;;;;;;;;;0.43;62.21;96498.75;6396969;27;19978;-64
2021/12/18 08:10:15;;;;;;;;;;;;;;;0.55;62.24;96500.09;6396792;27;19922;-63
2021/12/18 08:13:16;;;;;;;;;;;;;;;0.68;61.90;96500.56;6396693;27;19970;-63
2021/12/18 08:16:19;;;;;;;;;;;;;;;0.76;61.06;96490.78;6396053;27;19930;-64
2021/12/18 08:19:23;;;;;;;;;;;;;;;0.64;61.20;96493.78;6396905;27;19919;-62
2021/12/18 08:22:28;;;;;;;;;;;;;;;0.56;61.63;96498.34;6396564;27;20017;-63
2021/12/18 08:25:30;;;;;;;;;;;;;;;0.49;61.64;96489.94;6395910;27;20388;-64
2021/12/18 08:28:31;;;;;;;;;;;;;;;0.42;61.60;96489.25;6398417;27;19923;-64
2021/12/18 08:31:32;;;;;;;;;;;;;;;0.41;61.48;96500.53;6400942;27;19975;-64
2021/12/18 08:34:33;;;;;;;;;;;;;;;0.35;61.70;96498.13;6401394;27;20018;-64
2021/12/18 08:37:36;;;;;;;;;;;;;;;0.17;61.54;96502.13;6401508;27;20367;-63
2021/12/18 08:40:38;;;;;;;;;;;;;;;-0.01;61.58;96497.47;6401252;27;20064;-64
2021/12/18 08:43:39;;;;;;;;;;;;;;;-0.21;60.87;96485.13;6401141;27;19923;-64
2021/12/18 08:46:41;;;;;;;;;;;;;;;-0.60;61.40;96487.06;6401083;27;19980;-63
2021/12/18 08:49:42;;;;;;;;;;;;;;;-0.79;62.53;96481.53;6400592;27;19923;-64
2021/12/18 08:52:43;;;;;;;;;;;;;;;-0.94;62.43;96478.47;6399813;27;20026;-63
2021/12/18 08:55:47;;;;;;;;;;;;;;;-0.91;62.43;96473.25;6400934;27;20303;-64
2021/12/18 08:58:50;;;;;;;;;;;;;;;-0.73;62.39;96471.06;6400872;27;19996;-64
2021/12/18 09:01:53;;;;;;;;;;;;;;;-0.77;62.23;96482.34;6400490;27;19984;-64
2021/12/18 09:04:57;;;;;;;;;;;;;;;-0.86;62.48;96480.03;6400675;27;19923;-64
2021/12/18 09:07:58;;;;;;;;;;;;;;;-0.90;61.70;96479.25;6400089;27;20067;-64
2021/12/18 09:10:59;;;;;;;;;;;;;;;-1.11;61.75;96469.47;6399764;27;19930;-63
2021/12/18 09:14:02;;;;;;;;;;;;;;;-1.40;62.79;96469.31;6400651;27;19923;-64
2021/12/18 09:17:06;;;;;;;;;;;;;;;-1.49;63.35;96466.94;6400704;27;19923;-64
2021/12/18 09:20:08;;;;;;;;;;;;;;;-1.60;63.78;96466.34;6399853;27;19925;-64
2021/12/18 09:23:09;;;;;;;;;;;;;;;-1.63;64.04;96456.13;6400419;27;19930;-63
2021/12/18 09:26:12;;;;;;;;;;;;;;;-1.61;64.40;96456.94;6400477;27;20333;-64
2021/12/18 09:29:16;;;;;;;;;;;;;;;-1.57;64.50;96450.81;6381557;27;19923;-65
2021/12/18 09:32:17;;;;;;;;;;;;;;;-1.59;64.70;96452.56;6400307;27;19923;-63
2021/12/18 09:35:21;;;;;;;;;;;;;;;-1.58;64.77;96444.81;6399325;27;19927;-63
2021/12/18 09:38:25;;;;;;;;;;;;;;;-1.43;64.01;96446.16;6399958;27;19945;-65
2021/12/18 09:41:28;;;;;;;;;;;;;;;-1.47;64.37;96439.38;6398996;27;20021;-64
2021/12/18 09:44:32;;;;;;;;;;;;;;;-1.45;64.31;96435.00;6398814;27;19960;-63
2021/12/18 09:47:33;;;;;;;;;;;;;;;-1.45;64.04;96429.84;6398807;27;20392;-64
2021/12/18 09:50:37;;;;;;;;;;;;;;;-1.44;64.08;96421.25;6399822;27;19930;-64
2021/12/18 09:53:38;;;;;;;;;;;;;;;-1.44;64.60;96423.81;6399579;27;19945;-63
2021/12/18 09:56:42;;;;;;;;;;;;;;;-1.49;64.36;96428.25;6399424;27;19927;-64
2021/12/18 09:59:43;;;;;;;;;;;;;;;-1.49;64.02;96417.94;6399549;27;19923;-64
2021/12/18 10:02:44;;;;;;;;;;;;;;;-1.72;64.54;96415.06;6399482;27;19922;-64
2021/12/18 10:05:45;;;;;;;;;;;;;;;-1.74;65.70;96427.13;6399215;27;19923;-63
2021/12/18 10:08:49;;;;;;;;;;;;;;;-1.76;65.80;96408.25;6399142;27;20021;-63
2021/12/18 10:12:00;;;;;;;;;;;;;;;-1.94;65.97;96406.97;6399409;27;19927;-63
2021/12/18 10:15:12;;;;;;;;;;;;;;;-1.88;65.69;96407.66;6398467;27;20292;-65
2021/12/18 10:18:13;;;;;;;;;;;;;;;-1.66;65.17;96415.75;6399140;27;20285;-63
2021/12/18 10:21:15;;;;;;;;;;;;;;;-2.20;66.06;96412.72;6397957;27;19923;-64
2021/12/18 10:24:17;;;;;;;;;;;;;;;-2.13;67.43;96404.81;6397970;27;20322;-64
2021/12/18 10:27:20;;;;;;;;;;;;;;;-2.14;67.28;96397.13;6398517;27;19923;-63
2021/12/18 10:30:22;;;;;;;;;;;;;;;-2.16;67.14;96396.31;6398855;27;19923;-64
2021/12/18 10:33:28;;;;;;;;;;;;;;;-2.46;67.22;96390.94;6397777;27;20039;-64
2021/12/18 10:36:32;;;;;;;;;;;;;;;-2.40;67.41;96390.81;6398574;27;19923;-63
2021/12/18 10:39:35;;;;;;;;;;;;;;;-2.43;67.79;96380.56;6398687;27;19930;-63
2021/12/18 10:42:40;;;;;;;;;;;;;;;-2.73;67.56;96377.75;6397457;27;19930;-64
2021/12/18 10:45:42;;;;;;;;;;;;;;;-2.67;68.20;96370.78;6397407;27;20072;-63
2021/12/18 10:48:58;;;;;;;;;;;;;;;-2.76;68.33;96375.25;6398301;27;19923;-63
2021/12/18 10:51:59;;;;;;;;;;;;;;;-2.91;69.24;96377.28;6396416;27;19923;-64
2021/12/18 10:55:05;;;;;;;;;;;;;;;-2.79;69.03;96372.72;6398199;27;20456;-64
2021/12/18 10:58:10;;;;;;;;;;;;;;;-2.84;68.82;96369.41;6397352;27;19930;-64
2021/12/18 11:01:15;;;;;;;;;;;;;;;-3.05;69.13;96364.69;6397367;27;19937;-63
2021/12/18 11:04:26;;;;;;;;;;;;;;;-3.04;69.29;96353.50;6397923;27;19922;-63
2021/12/18 11:07:37;;;;;;;;;;;;;;;-3.26;69.64;96351.34;6397770;27;19923;-62
2021/12/18 11:10:55;;;;;;;;;;;;;;;-3.22;70.03;96352.16;6397588;27;20101;-64
2021/12/18 11:13:56;;;;;;;;;;;;;;;-3.08;69.92;96344.16;6397128;27;20411;-63
2021/12/18 11:16:59;;;;;;;;;;;;;;;-2.94;69.74;96349.88;6397309;27;19922;-63
2021/12/18 11:20:02;;;;;;;;;;;;;;;-2.71;70.24;96345.09;6397628;27;19945;-63
2021/12/18 11:23:07;;;;;;;;;;;;;;;-2.84;69.73;96342.81;6397366;27;20407;-63
2021/12/18 11:26:08;;;;;;;;;;;;;;;-2.91;69.49;96346.41;6397102;27;19923;-63
2021/12/18 11:29:30;;;;;;;;;;;;;;;-3.01;70.07;96340.56;6397374;27;20299;-63
2021/12/18 11:32:33;;;;;;;;;;;;;;;-3.04;70.09;96338.91;6396657;27;20405;-63
2021/12/18 11:35:36;;;;;;;;;;;;;;;-2.89;69.91;96340.31;6397358;27;19923;-63
2021/12/18 11:38:39;;;;;;;;;;;;;;;-2.95;69.28;96331.00;6396640;27;20072;-63
2021/12/18 11:41:47;;;;;;;;;;;;;;;-3.15;70.14;96330.56;6396766;27;19923;-64
2021/12/18 11:44:52;;;;;;;;;;;;;;;-3.30;70.06;96326.56;6396614;27;19965;-62
2021/12/18 11:47:56;;;;;;;;;;;;;;;-3.30;70.66;96318.84;6397014;27;19922;-63
2021/12/18 11:51:11;;;;;;;;;;;;;;;-3.36;70.52;96321.53;6397344;27;19923;-64
2021/12/18 11:54:38;;;;;;;;;;;;;;;-3.36;70.72;96313.81;6396215;27;19930;-63
2021/12/18 11:57:49;;;;;;;;;;;;;;;-3.45;71.03;96308.84;6397007;27;20401;-63
2021/12/18 12:00:55;;;;;;;;;;;;;;;-3.35;70.66;96300.06;6396097;27;20308;-64
2021/12/18 12:03:58;;;;;;;;;;;;;;;-3.50;70.89;96295.22;6399659;27;20380;-63
2021/12/18 12:07:16;;;;;;;;;;;;;;;-3.58;71.12;96297.09;6401097;27;19923;-64
2021/12/18 12:10:45;;;;;;;;;;;;;;;-3.56;71.34;96297.91;6402285;27;20295;-63
2021/12/18 12:13:51;;;;;;;;;;;;;;;-3.54;71.35;96288.44;6401573;27;20253;-62
2021/12/18 12:16:52;;;;;;;;;;;;;;;-3.49;71.49;96286.63;6401078;27;19923;-64
2021/12/18 12:19:59;;;;;;;;;;;;;;;-3.48;71.49;96278.03;6400821;27;19923;-64
2021/12/18 12:23:02;;;;;;;;;;;;;;;-3.45;71.55;96272.84;6401536;27;19930;-64
2021/12/18 12:26:21;;;;;;;;;;;;;;;-3.39;71.80;96272.72;6401498;27;20346;-63
2021/12/18 12:29:43;;;;;;;;;;;;;;;-3.37;71.71;96263.22;6401277;27;19922;-63
2021/12/18 12:32:54;;;;;;;;;;;;;;;-3.24;71.70;96259.53;6401097;27;19923;-64
2021/12/18 12:35:57;;;;;;;;;;;;;;;-3.40;71.33;96256.44;6400478;27;19922;-63
2021/12/18 12:39:00;;;;;;;;;;;;;;;-3.40;71.73;96251.31;6401468;27;20449;-64
2021/12/18 12:42:10;;;;;;;;;;;;;;;-3.39;72.02;96247.00;6400587;27;19923;-64
2021/12/18 12:45:31;;;;;;;;;;;;;;;-3.32;71.89;96245.97;6400580;27;19930;-63
2021/12/18 12:49:16;;;;;;;;;;;;;;;-3.29;71.71;96239.94;6401313;27;20490;-63
2021/12/18 12:52:20;;;;;;;;;;;;;;;-3.26;71.74;96240.69;6271923;28;20381;-63
2021/12/18 12:55:25;;;;;;;;;;;;;;;-3.36;71.92;96236.66;6272063;28;19932;-63
2021/12/18 12:58:30;;;;;;;;;;;;;;;-3.36;72.00;96234.06;6401164;27;20316;-65
2021/12/18 13:01:37;;;;;;;;;;;;;;;-3.40;72.05;96227.28;6399703;27;19930;-63
2021/12/18 13:04:38;;;;;;;;;;;;;;;-3.46;72.06;96217.13;6399996;27;19930;-63
2021/12/18 13:07:51;;;;;;;;;;;;;;;-3.43;72.23;96219.63;6400191;27;20055;-63
2021/12/18 13:10:59;;;;;;;;;;;;;;;-3.37;72.21;96209.22;6401002;27;20017;-63
2021/12/18 13:14:00;;;;;;;;;;;;;;;-3.31;71.97;96201.38;6399586;27;20319;-62
2021/12/18 13:17:15;;;;;;;;;;;;;;;-3.25;72.00;96188.38;6399011;27;20013;-63
2021/12/18 13:20:23;;;;;;;;;;;;;;;-3.32;72.11;96179.09;6400409;27;19923;-63
2021/12/18 13:23:40;;;;;;;;;;;;;;;-3.30;72.02;96179.91;6399911;27;19930;-64
2021/12/18 13:26:45;;;;;;;;;;;;;;;-3.25;72.26;96175.53;6400183;27;20400;-63
2021/12/18 13:30:07;;;;;;;;;;;;;;;-3.22;72.09;96172.88;6380164;27;20396;-62
2021/12/18 13:33:09;;;;;;;;;;;;;;;-3.19;72.32;96167.66;6400193;27;19934;-63
2021/12/18 13:36:10;;;;;;;;;;;;;;;-3.10;72.05;96168.34;6399880;27;19923;-64
2021/12/18 13:39:18;;;;;;;;;;;;;;;-3.14;72.26;96165.00;6400290;27;19923;-63
2021/12/18 13:42:24;;;;;;;;;;;;;;;-3.12;72.08;96167.53;6399911;27;20263;-63
2021/12/18 13:45:25;;;;;;;;;;;;;;;-3.19;72.23;96157.38;6399779;27;19923;-63
2021/12/18 13:48:27;;;;;;;;;;;;;;;-3.18;72.21;96151.34;6398500;27;19922;-63
2021/12/18 13:51:28;;;;;;;;;;;;;;;-3.18;72.23;96155.63;6397702;27;19923;-64
2021/12/18 13:54:33;;;;;;;;;;;;;;;-3.12;72.24;96146.94;6398622;27;20383;-63
2021/12/18 13:57:34;;;;;;;;;;;;;;;-3.19;72.30;96141.94;6399156;27;19930;-63
2021/12/18 14:00:49;;;;;;;;;;;;;;;-3.20;72.14;96140.25;6398317;27;19955;-63
2021/12/18 14:03:56;;;;;;;;;;;;;;;-3.25;72.30;96139.50;6399299;27;20307;-64
2021/12/18 14:06:59;;;;;;;;;;;;;;;-3.24;72.53;96133.47;6398673;27;19927;-64
2021/12/18 14:10:06;;;;;;;;;;;;;;;-3.21;72.27;96128.25;6398386;27;20002;-63
2021/12/18 14:13:08;;;;;;;;;;;;;;;-3.12;72.34;96131.50;6398285;27;19930;-64
2021/12/18 14:16:16;;;;;;;;;;;;;;;-3.19;72.36;96116.19;6398913;27;19930;-63
2021/12/18 14:19:24;;;;;;;;;;;;;;;-3.23;72.40;96114.59;6397959;27;19931;-63
2021/12/18 14:22:31;;;;;;;;;;;;;;;-3.25;72.60;96116.34;6380005;27;19933;-63
2021/12/18 14:25:32;;;;;;;;;;;;;;;-3.22;72.23;96111.13;6398098;27;20388;-63
2021/12/18 14:28:34;;;;;;;;;;;;;;;-3.21;72.48;96102.53;6398139;27;19930;-63
2021/12/18 14:31:55;;;;;;;;;;;;;;;-3.23;72.15;96099.16;6397293;27;20403;-63
2021/12/18 14:35:06;;;;;;;;;;;;;;;-3.23;72.38;96093.13;6398813;27;20438;-64
2021/12/18 14:38:07;;;;;;;;;;;;;;;-3.12;72.53;96087.75;6397811;27;19931;-65
2021/12/18 14:41:08;;;;;;;;;;;;;;;-3.23;72.15;96082.84;6397995;27;19923;-65
2021/12/18 14:44:12;;;;;;;;;;;;;;;-3.27;72.11;96076.94;6398389;27;19923;-64
2021/12/18 14:47:19;;;;;;;;;;;;;;;-3.26;72.14;96073.47;6398194;27;19922;-64
2021/12/18 14:50:39;;;;;;;;;;;;;;;-3.26;72.49;96073.47;6398117;27;19930;-65
2021/12/18 14:53:56;;;;;;;;;;;;;;;-3.27;72.31;96071.78;6398302;27;19927;-65
2021/12/18 14:57:15;;;;;;;;;;;;;;;-3.25;72.32;96072.63;6398111;27;19930;-64
2021/12/18 15:00:22;;;;;;;;;;;;;;;-3.25;72.70;96059.75;6398386;27;19927;-65
2021/12/18 15:03:23;;;;;;;;;;;;;;;-3.23;72.66;96059.69;6397343;27;20017;-63
2021/12/18 15:06:31;;;;;;;;;;;;;;;-3.23;72.29;96058.00;6397792;27;20026;-65
2021/12/18 15:09:38;;;;;;;;;;;;;;;-3.23;72.36;96052.84;6397842;27;20017;-64
2021/12/18 15:12:42;;;;;;;;;;;;;;;-3.16;72.37;96049.22;6397915;27;19926;-64
2021/12/18 15:15:46;;;;;;;;;;;;;;;-3.17;72.17;96052.69;6397828;27;20315;-64
2021/12/18 15:18:48;;;;;;;;;;;;;;;-3.18;72.22;96040.69;6397711;27;20018;-64
2021/12/18 15:21:51;;;;;;;;;;;;;;;-3.20;72.26;96037.34;6397417;27;19931;-63
2021/12/18 15:24:53;;;;;;;;;;;;;;;-3.21;72.73;96035.63;6396979;27;20316;-64
2021/12/18 15:27:55;;;;;;;;;;;;;;;-3.22;72.65;96028.81;6396934;27;19962;-64
2021/12/18 15:30:58;;;;;;;;;;;;;;;-3.23;72.59;96027.13;6396980;27;20501;-64
2021/12/18 15:34:00;;;;;;;;;;;;;;;-3.20;72.35;96021.91;6395991;27;19923;-65
2021/12/18 15:37:03;;;;;;;;;;;;;;;-3.23;72.30;96027.13;6396479;27;19923;-64
2021/12/18 15:40:04;;;;;;;;;;;;;;;-3.26;72.12;96018.59;6396011;27;19923;-65
2021/12/18 15:43:06;;;;;;;;;;;;;;;-3.03;71.19;96012.88;6396168;27;19924;-64
2021/12/18 15:46:10;;;;;;;;;;;;;;;-3.31;70.87;96017.88;6397067;27;19927;-63
2021/12/18 15:49:13;;;;;;;;;;;;;;;-3.41;71.54;96012.13;6396271;27;19923;-65
2021/12/18 15:52:14;;;;;;;;;;;;;;;-3.47;71.52;96013.09;6397209;27;19923;-64
2021/12/18 15:55:15;;;;;;;;;;;;;;;-3.70;72.10;96016.22;6397117;27;19923;-63
2021/12/18 15:58:19;;;;;;;;;;;;;;;-3.80;72.62;96008.72;6397277;27;20017;-64
2021/12/18 16:01:21;;;;;;;;;;;;;;;-3.64;72.57;96004.94;6397117;27;19992;-65
2021/12/18 16:04:24;;;;;;;;;;;;;;;-3.81;72.26;96005.31;6397009;27;19923;-63
2021/12/18 16:07:28;;;;;;;;;;;;;;;-3.72;72.53;96010.25;6396631;27;19923;-64
2021/12/18 16:10:32;;;;;;;;;;;;;;;-3.74;72.54;95999.16;6397002;27;19923;-64
2021/12/18 16:13:33;;;;;;;;;;;;;;;-3.77;73.09;95999.22;6396100;27;19923;-64
2021/12/18 16:16:37;;;;;;;;;;;;;;;-4.00;73.04;95991.19;6396309;27;19930;-64
2021/12/18 16:19:38;;;;;;;;;;;;;;;-3.89;73.69;95984.94;6395941;27;20021;-62
2021/12/18 16:22:39;;;;;;;;;;;;;;;-3.90;73.87;95987.53;6395992;27;19934;-64
2021/12/18 16:25:40;;;;;;;;;;;;;;;-4.02;73.98;95982.66;6396461;27;19923;-63
2021/12/18 16:28:44;;;;;;;;;;;;;;;-3.99;74.06;95982.59;6395803;27;19922;-63
2021/12/18 16:31:45;;;;;;;;;;;;;;;-3.96;73.97;95974.81;6395927;27;19946;-62
2021/12/18 16:34:49;;;;;;;;;;;;;;;-4.03;74.12;95971.53;6396787;27;19923;-64
2021/12/18 16:41:10;;;;;;;;;;;;;;;-3.99;74.70;95967.16;6396203;27;19926;-64